South Bend, Nebraska
Current Conditions -  °F | °C
As of 4:15 PM on Thursday 27 Nov 2014 (Local Time) from KMLE Reporting Station
Clear Clear  
Wind Chill: -10°   Ceiling: Unl
Heat Index: -4°   Visibility: 10mi
Dew Point: -12°   Wind: 13mph
Humidity: 52%   Direction: 120°ESE
Pressure: 30.33"   Gusts: NA
Location:  41°N, 96.25°W
Report Text: KMLE 272215Z AUTO 12011KT 10SM CLR M04/M12 A3033 RMK AO2 T10371123
Loading
Personal Weather Stations






























Interactive Weather Map New forecast layout! Learn more

10-Day Weather Forecast

Advertisements
Track Severe Weather on mobile